Time;durP1;ratioP1;P1;durP2;ratioP2;P2;SDS_P1;SDS_P2;PMS_P1;PMS_P2;Temp;Humidity;BMP_temperature;BMP_pressure;BME280_temperature;BME280_humidity;BME280_pressure;Samples;Min_cycle;Max_cycle;Signal;HPM_P1;HPM_P2
2023/12/06 00:01:08;;;;;;;73.20;32.78;;;;;;;;;;5092194;28;20335;-61
2023/12/06 00:03:34;;;;;;;77.50;33.08;;;;;;;;;;5093061;28;20038;-60
2023/12/06 00:06:00;;;;;;;66.18;32.67;;;;;;;;;;5074031;28;20416;-60
2023/12/06 00:08:26;;;;;;;69.85;33.88;;;;;;;;;;5091035;28;20043;-60
2023/12/06 00:10:52;;;;;;;69.65;33.00;;;;;;;;;;5088789;28;20094;-61
2023/12/06 00:13:18;;;;;;;75.97;33.95;;;;;;;;;;5087581;28;20451;-62
2023/12/06 00:15:44;;;;;;;69.05;32.00;;;;;;;;;;5089847;28;20043;-60
2023/12/06 00:18:10;;;;;;;72.88;31.13;;;;;;;;;;5092746;28;20064;-63
2023/12/06 00:20:36;;;;;;;68.38;32.28;;;;;;;;;;5091801;28;20523;-61
2023/12/06 00:23:02;;;;;;;72.43;33.95;;;;;;;;;;5088976;28;20044;-60
2023/12/06 00:25:28;;;;;;;67.70;31.15;;;;;;;;;;5091951;28;20052;-60
2023/12/06 00:27:55;;;;;;;68.53;31.48;;;;;;;;;;5092433;28;20043;-61
2023/12/06 00:30:21;;;;;;;73.88;33.25;;;;;;;;;;5072843;28;20048;-62
2023/12/06 00:32:47;;;;;;;69.93;30.98;;;;;;;;;;5073521;28;20040;-61
2023/12/06 00:35:16;;;;;;;69.20;31.60;;;;;;;;;;5073543;28;20052;-60
2023/12/06 00:37:44;;;;;;;70.63;32.78;;;;;;;;;;5072465;28;20048;-60
2023/12/06 00:40:10;;;;;;;71.47;33.03;;;;;;;;;;5055819;28;20054;-60
2023/12/06 00:42:36;;;;;;;76.40;35.85;;;;;;;;;;5071388;28;20044;-61
2023/12/06 00:45:02;;;;;;;74.05;33.20;;;;;;;;;;5089314;28;20040;-60
2023/12/06 00:47:29;;;;;;;71.03;33.05;;;;;;;;;;5073210;28;20047;-60
2023/12/06 00:49:55;;;;;;;69.70;30.65;;;;;;;;;;5055691;28;20050;-60
2023/12/06 00:52:21;;;;;;;72.65;33.63;;;;;;;;;;5070919;28;20122;-62
2023/12/06 00:54:48;;;;;;;69.20;29.70;;;;;;;;;;5072284;28;20047;-61
2023/12/06 00:57:17;;;;;;;69.88;32.42;;;;;;;;;;5051752;28;20044;-62
2023/12/06 00:59:43;;;;;;;66.05;31.60;;;;;;;;;;5071264;28;20055;-60
2023/12/06 01:02:09;;;;;;;76.68;33.15;;;;;;;;;;5084771;28;20450;-60
2023/12/06 01:04:38;;;;;;;72.38;32.15;;;;;;;;;;5088219;28;20431;-60
2023/12/06 01:07:05;;;;;;;75.07;35.85;;;;;;;;;;5090697;28;20044;-62
2023/12/06 01:09:31;;;;;;;72.40;32.50;;;;;;;;;;5050873;28;20544;-63
2023/12/06 01:11:58;;;;;;;71.07;30.98;;;;;;;;;;5064850;28;20040;-61
2023/12/06 01:14:24;;;;;;;72.75;31.98;;;;;;;;;;5068661;28;20082;-61
2023/12/06 01:16:50;;;;;;;66.20;31.60;;;;;;;;;;5091837;28;20043;-61
2023/12/06 01:19:16;;;;;;;74.35;33.47;;;;;;;;;;5089629;28;20503;-61
2023/12/06 01:21:43;;;;;;;66.30;32.05;;;;;;;;;;5070965;28;20541;-60
2023/12/06 01:24:09;;;;;;;68.63;32.05;;;;;;;;;;5047479;28;20091;-62
2023/12/06 01:26:35;;;;;;;77.55;30.98;;;;;;;;;;5058125;28;20048;-60
2023/12/06 01:29:03;;;;;;;71.13;33.05;;;;;;;;;;5070800;28;20384;-60
2023/12/06 01:31:30;;;;;;;64.47;30.27;;;;;;;;;;5054597;28;20056;-61
2023/12/06 01:33:56;;;;;;;63.17;29.27;;;;;;;;;;5055716;28;20074;-61
2023/12/06 01:36:22;;;;;;;57.50;28.85;;;;;;;;;;5067353;28;20040;-61
2023/12/06 01:38:48;;;;;;;64.90;29.83;;;;;;;;;;5073230;28;20040;-68
2023/12/06 01:41:15;;;;;;;60.47;30.65;;;;;;;;;;5053951;28;20047;-63
2023/12/06 01:43:44;;;;;;;63.70;30.75;;;;;;;;;;5054434;28;20069;-61
2023/12/06 01:46:13;;;;;;;63.53;30.27;;;;;;;;;;5071401;28;20055;-61
2023/12/06 01:48:41;;;;;;;65.53;29.25;;;;;;;;;;5067743;28;20036;-62
2023/12/06 01:51:08;;;;;;;63.53;30.70;;;;;;;;;;5067718;28;20113;-62
2023/12/06 01:53:34;;;;;;;56.22;29.50;;;;;;;;;;5064133;28;20039;-62
2023/12/06 01:56:00;;;;;;;57.13;28.65;;;;;;;;;;5069035;28;20044;-61
2023/12/06 01:58:28;;;;;;;55.42;29.38;;;;;;;;;;5042409;28;20040;-64
2023/12/06 02:00:54;;;;;;;59.90;28.90;;;;;;;;;;5038526;28;20048;-61
2023/12/06 02:03:22;;;;;;;64.47;31.00;;;;;;;;;;5062909;28;20142;-62
2023/12/06 02:05:49;;;;;;;57.60;28.55;;;;;;;;;;5063503;28;20194;-69
2023/12/06 02:08:15;;;;;;;58.28;29.15;;;;;;;;;;5065997;28;20044;-62
2023/12/06 02:10:42;;;;;;;58.00;27.90;;;;;;;;;;5041443;28;20056;-61
2023/12/06 02:13:08;;;;;;;58.50;27.17;;;;;;;;;;5082870;28;20829;-61
2023/12/06 02:15:35;;;;;;;60.58;28.88;;;;;;;;;;5044086;28;20461;-63
2023/12/06 02:18:02;;;;;;;55.00;28.85;;;;;;;;;;5063724;28;20048;-61
2023/12/06 02:20:28;;;;;;;54.40;28.85;;;;;;;;;;5047449;28;20151;-62
2023/12/06 02:22:55;;;;;;;55.67;28.38;;;;;;;;;;5050946;28;20412;-62
2023/12/06 02:25:21;;;;;;;50.17;26.45;;;;;;;;;;5052796;28;20052;-62
2023/12/06 02:27:48;;;;;;;51.20;27.63;;;;;;;;;;5086287;28;20040;-62
2023/12/06 02:30:14;;;;;;;47.33;25.70;;;;;;;;;;5054324;28;20048;-61
2023/12/06 02:32:40;;;;;;;50.53;26.63;;;;;;;;;;5054073;28;20055;-62
2023/12/06 02:35:11;;;;;;;52.35;27.27;;;;;;;;;;5056359;28;20048;-61
2023/12/06 02:37:38;;;;;;;45.60;25.50;;;;;;;;;;5072992;28;20511;-61
2023/12/06 02:40:06;;;;;;;49.22;26.58;;;;;;;;;;5052446;28;20052;-62
2023/12/06 02:42:32;;;;;;;48.40;25.40;;;;;;;;;;5077900;28;20055;-62
2023/12/06 02:44:58;;;;;;;48.25;26.08;;;;;;;;;;5092107;28;20040;-61
2023/12/06 02:47:24;;;;;;;44.08;26.65;;;;;;;;;;5090138;28;20123;-61
2023/12/06 02:49:51;;;;;;;46.30;25.80;;;;;;;;;;5052570;28;20103;-61
2023/12/06 02:52:17;;;;;;;45.83;25.55;;;;;;;;;;5056164;28;20123;-60
2023/12/06 02:54:43;;;;;;;48.15;26.75;;;;;;;;;;5054541;28;20439;-61
2023/12/06 02:57:09;;;;;;;49.53;25.85;;;;;;;;;;5091243;28;20052;-61
2023/12/06 02:59:35;;;;;;;48.45;25.92;;;;;;;;;;5089829;28;20094;-61
2023/12/06 03:02:01;;;;;;;47.45;25.92;;;;;;;;;;5091434;28;20048;-61
2023/12/06 03:04:27;;;;;;;47.17;25.38;;;;;;;;;;5084262;28;20120;-60
2023/12/06 03:06:53;;;;;;;47.50;24.33;;;;;;;;;;5068413;28;20044;-61
2023/12/06 03:09:19;;;;;;;48.72;25.98;;;;;;;;;;5089420;28;20089;-61
2023/12/06 03:11:45;;;;;;;50.50;26.33;;;;;;;;;;5091082;28;20047;-60
2023/12/06 03:14:11;;;;;;;50.90;26.58;;;;;;;;;;5091250;28;20044;-61
2023/12/06 03:16:37;;;;;;;44.63;24.45;;;;;;;;;;5071187;28;20043;-61
2023/12/06 03:19:03;;;;;;;44.40;25.67;;;;;;;;;;5071934;28;20130;-63
2023/12/06 03:21:29;;;;;;;42.17;23.85;;;;;;;;;;5070601;28;20040;-60
2023/12/06 03:23:56;;;;;;;44.70;25.42;;;;;;;;;;5072873;28;20060;-61
2023/12/06 03:26:22;;;;;;;46.78;24.25;;;;;;;;;;5104465;28;20573;-61
2023/12/06 03:28:48;;;;;;;43.75;23.10;;;;;;;;;;5089695;28;20053;-69
2023/12/06 03:31:14;;;;;;;46.20;24.73;;;;;;;;;;5102668;27;20040;-60
2023/12/06 03:33:40;;;;;;;40.08;23.60;;;;;;;;;;5093701;28;20050;-61
2023/12/06 03:36:09;;;;;;;48.40;26.38;;;;;;;;;;5102142;27;20114;-60
2023/12/06 03:38:35;;;;;;;52.00;25.45;;;;;;;;;;5076703;28;20043;-62
2023/12/06 03:41:02;;;;;;;44.15;26.08;;;;;;;;;;5088023;28;20092;-61
2023/12/06 03:43:28;;;;;;;46.33;26.10;;;;;;;;;;5093999;28;20128;-61
2023/12/06 03:45:54;;;;;;;44.00;23.92;;;;;;;;;;5072364;28;20052;-62
2023/12/06 03:48:20;;;;;;;46.42;24.92;;;;;;;;;;5101778;28;20054;-60
2023/12/06 03:50:46;;;;;;;43.60;23.75;;;;;;;;;;5102448;28;20044;-60
2023/12/06 03:53:12;;;;;;;50.30;26.38;;;;;;;;;;5081751;28;20044;-64
2023/12/06 03:55:38;;;;;;;47.83;24.45;;;;;;;;;;5098669;28;20044;-61
2023/12/06 03:58:05;;;;;;;48.13;26.52;;;;;;;;;;5100038;28;20559;-60
2023/12/06 04:00:31;;;;;;;49.30;24.88;;;;;;;;;;5082757;28;20052;-61
2023/12/06 04:02:57;;;;;;;51.83;26.05;;;;;;;;;;5099160;28;20056;-61
2023/12/06 04:05:23;;;;;;;47.90;26.80;;;;;;;;;;5064958;28;20071;-64
2023/12/06 04:07:49;;;;;;;46.70;26.65;;;;;;;;;;5100922;27;20479;-63
2023/12/06 04:10:15;;;;;;;50.35;26.77;;;;;;;;;;5102069;28;20066;-62
2023/12/06 04:12:41;;;;;;;51.90;26.08;;;;;;;;;;5101918;28;20487;-63
2023/12/06 04:15:08;;;;;;;47.65;26.85;;;;;;;;;;5101669;27;20047;-63
2023/12/06 04:17:34;;;;;;;50.65;26.77;;;;;;;;;;5075173;28;20528;-60
2023/12/06 04:20:00;;;;;;;52.72;25.65;;;;;;;;;;5103828;28;20127;-61
2023/12/06 04:22:26;;;;;;;50.92;27.38;;;;;;;;;;5090695;28;20476;-61
2023/12/06 04:24:53;;;;;;;54.85;27.33;;;;;;;;;;5105764;28;20172;-62
2023/12/06 04:27:19;;;;;;;51.70;27.45;;;;;;;;;;5073416;28;20546;-61
2023/12/06 04:29:45;;;;;;;49.28;26.83;;;;;;;;;;5089525;28;20047;-62
2023/12/06 04:32:11;;;;;;;45.13;25.05;;;;;;;;;;5105466;28;20048;-61
2023/12/06 04:34:46;;;;;;;46.53;24.67;;;;;;;;;;5106448;28;20047;-61
2023/12/06 04:37:12;;;;;;;44.13;25.23;;;;;;;;;;5068943;28;20104;-66
2023/12/06 04:39:38;;;;;;;46.47;24.85;;;;;;;;;;5106951;28;20035;-61
2023/12/06 04:42:04;;;;;;;46.60;25.25;;;;;;;;;;5103490;28;20051;-61
2023/12/06 04:44:30;;;;;;;46.70;23.42;;;;;;;;;;5088624;28;20054;-61
2023/12/06 04:46:56;;;;;;;41.78;23.98;;;;;;;;;;5097061;28;20040;-61
2023/12/06 04:49:22;;;;;;;47.92;24.38;;;;;;;;;;5102431;28;20399;-61
2023/12/06 04:51:48;;;;;;;40.22;21.40;;;;;;;;;;5087978;28;20126;-62
2023/12/06 04:54:15;;;;;;;40.70;23.02;;;;;;;;;;5106905;28;20074;-60
2023/12/06 04:56:41;;;;;;;35.80;20.30;;;;;;;;;;5089900;28;20430;-65
2023/12/06 04:59:07;;;;;;;33.97;20.65;;;;;;;;;;5090429;28;20044;-61
2023/12/06 05:01:33;;;;;;;36.08;21.00;;;;;;;;;;5086961;28;20431;-61
2023/12/06 05:03:59;;;;;;;35.80;22.45;;;;;;;;;;5075032;28;20476;-61
2023/12/06 05:06:25;;;;;;;37.30;20.58;;;;;;;;;;5075224;28;20092;-61
2023/12/06 05:08:51;;;;;;;37.20;21.98;;;;;;;;;;5107474;27;20551;-62
2023/12/06 05:11:17;;;;;;;35.80;21.23;;;;;;;;;;5105337;28;20171;-60
2023/12/06 05:13:43;;;;;;;42.85;22.63;;;;;;;;;;5101178;28;20050;-65
2023/12/06 05:16:09;;;;;;;35.00;20.52;;;;;;;;;;5091863;28;20126;-61
2023/12/06 05:18:35;;;;;;;33.75;19.75;;;;;;;;;;5103726;28;20655;-61
2023/12/06 05:21:01;;;;;;;40.20;20.98;;;;;;;;;;5106895;28;20503;-60
2023/12/06 05:23:27;;;;;;;35.95;21.20;;;;;;;;;;5106509;28;20495;-60
2023/12/06 05:25:53;;;;;;;33.80;19.27;;;;;;;;;;5109769;28;20051;-61
2023/12/06 05:28:19;;;;;;;34.42;20.65;;;;;;;;;;5107231;28;20039;-61
2023/12/06 05:30:45;;;;;;;33.28;20.77;;;;;;;;;;5092173;28;20047;-61
2023/12/06 05:33:14;;;;;;;40.92;21.05;;;;;;;;;;5074162;28;20510;-62
2023/12/06 05:35:40;;;;;;;32.70;20.30;;;;;;;;;;5067129;28;20039;-61
2023/12/06 05:38:06;;;;;;;34.88;19.30;;;;;;;;;;5089952;28;20497;-61
2023/12/06 05:40:33;;;;;;;34.22;21.48;;;;;;;;;;5091553;28;20039;-60
2023/12/06 05:42:59;;;;;;;34.10;20.73;;;;;;;;;;5091179;28;20488;-60
2023/12/06 05:45:25;;;;;;;36.15;22.23;;;;;;;;;;5108297;28;20047;-62
2023/12/06 05:47:51;;;;;;;34.25;20.63;;;;;;;;;;5102895;28;20047;-61
2023/12/06 05:50:17;;;;;;;32.30;20.40;;;;;;;;;;5113927;28;20047;-61
2023/12/06 05:52:43;;;;;;;38.45;22.70;;;;;;;;;;5089408;28;20586;-61
2023/12/06 05:55:09;;;;;;;38.38;21.83;;;;;;;;;;5105985;28;20036;-60
2023/12/06 05:57:35;;;;;;;33.15;21.50;;;;;;;;;;5107405;28;20101;-62
2023/12/06 06:00:01;;;;;;;32.88;20.10;;;;;;;;;;5107655;28;20055;-61
2023/12/06 06:02:27;;;;;;;39.97;20.77;;;;;;;;;;5070835;28;20050;-61
2023/12/06 06:04:53;;;;;;;36.28;21.35;;;;;;;;;;5090451;28;20048;-61
2023/12/06 06:07:19;;;;;;;33.78;20.90;;;;;;;;;;5111859;28;20031;-61
2023/12/06 06:09:45;;;;;;;35.33;22.55;;;;;;;;;;5115367;27;20043;-61
2023/12/06 06:12:11;;;;;;;39.17;22.63;;;;;;;;;;5105678;28;20043;-61
2023/12/06 06:14:37;;;;;;;36.22;20.17;;;;;;;;;;5096225;27;20051;-61
2023/12/06 06:17:04;;;;;;;32.55;20.60;;;;;;;;;;5108788;28;20062;-64
2023/12/06 06:19:30;;;;;;;35.60;20.77;;;;;;;;;;5077033;28;20039;-61
2023/12/06 06:21:56;;;;;;;35.75;21.67;;;;;;;;;;5109821;28;20051;-60
2023/12/06 06:24:22;;;;;;;34.28;20.95;;;;;;;;;;5057535;28;20071;-68
2023/12/06 06:26:48;;;;;;;33.80;20.58;;;;;;;;;;5091498;28;20048;-68
2023/12/06 06:29:14;;;;;;;35.78;21.60;;;;;;;;;;5072531;28;20082;-60
2023/12/06 06:31:40;;;;;;;32.90;20.17;;;;;;;;;;5059786;28;20044;-60
2023/12/06 06:34:06;;;;;;;32.90;19.98;;;;;;;;;;5085917;28;20036;-61
2023/12/06 06:36:32;;;;;;;37.95;21.10;;;;;;;;;;5088958;28;20044;-61
2023/12/06 06:38:58;;;;;;;29.48;19.83;;;;;;;;;;5070135;28;20094;-61
2023/12/06 06:41:24;;;;;;;36.67;19.92;;;;;;;;;;5089726;28;20043;-61
2023/12/06 06:43:51;;;;;;;35.95;21.80;;;;;;;;;;5086684;28;20045;-62
2023/12/06 06:46:17;;;;;;;39.42;21.45;;;;;;;;;;5057530;28;20051;-60
2023/12/06 06:48:43;;;;;;;37.47;21.13;;;;;;;;;;5090490;28;20054;-61
2023/12/06 06:51:09;;;;;;;35.15;20.85;;;;;;;;;;5086080;28;20044;-61
2023/12/06 06:53:35;;;;;;;34.45;20.08;;;;;;;;;;5088323;28;20040;-62
2023/12/06 06:56:04;;;;;;;33.22;21.38;;;;;;;;;;5069966;28;20052;-60
2023/12/06 06:58:30;;;;;;;36.50;20.60;;;;;;;;;;5087258;28;20101;-61
2023/12/06 07:00:56;;;;;;;32.72;20.40;;;;;;;;;;5085646;28;20053;-60
2023/12/06 07:03:22;;;;;;;37.63;20.55;;;;;;;;;;5085838;28;20119;-63
2023/12/06 07:05:48;;;;;;;32.30;18.33;;;;;;;;;;5089664;28;20058;-65
2023/12/06 07:08:14;;;;;;;31.90;21.35;;;;;;;;;;5089323;28;20048;-61
2023/12/06 07:10:44;;;;;;;38.20;19.73;;;;;;;;;;5089563;28;20380;-62
2023/12/06 07:13:11;;;;;;;34.72;21.30;;;;;;;;;;5076393;28;20512;-63
2023/12/06 07:15:39;;;;;;;37.50;21.23;;;;;;;;;;5057429;28;20130;-61
2023/12/06 07:18:05;;;;;;;30.27;19.20;;;;;;;;;;5073902;28;20047;-60
2023/12/06 07:20:31;;;;;;;30.45;20.65;;;;;;;;;;5085565;28;20128;-61
2023/12/06 07:22:59;;;;;;;32.45;19.45;;;;;;;;;;5094978;28;20126;-62
2023/12/06 07:25:25;;;;;;;33.50;20.50;;;;;;;;;;5077094;28;20059;-62
2023/12/06 07:27:51;;;;;;;36.28;20.85;;;;;;;;;;5074690;28;20044;-62
2023/12/06 07:30:17;;;;;;;31.65;19.35;;;;;;;;;;5074622;28;20040;-62
2023/12/06 07:32:43;;;;;;;32.90;19.60;;;;;;;;;;5105493;28;20176;-62
2023/12/06 07:35:09;;;;;;;30.05;18.73;;;;;;;;;;5108612;28;20096;-62
2023/12/06 07:37:35;;;;;;;29.30;17.55;;;;;;;;;;5088312;28;20043;-63
2023/12/06 07:40:02;;;;;;;29.92;18.73;;;;;;;;;;5076555;28;20134;-62
2023/12/06 07:42:28;;;;;;;32.85;19.25;;;;;;;;;;5077687;28;20050;-62
2023/12/06 07:44:54;;;;;;;30.35;18.27;;;;;;;;;;5087721;28;20040;-62
2023/12/06 07:47:20;;;;;;;29.98;18.48;;;;;;;;;;5068758;28;20484;-62
2023/12/06 07:49:46;;;;;;;36.92;19.50;;;;;;;;;;5111135;28;20407;-62
2023/12/06 07:52:13;;;;;;;35.00;18.27;;;;;;;;;;5090503;28;20039;-62
2023/12/06 07:54:39;;;;;;;28.65;17.35;;;;;;;;;;5112879;28;20487;-62
2023/12/06 07:57:05;;;;;;;29.40;17.17;;;;;;;;;;5103734;28;20493;-62
2023/12/06 07:59:31;;;;;;;31.30;17.88;;;;;;;;;;5071802;28;20056;-63
2023/12/06 08:01:57;;;;;;;27.10;17.30;;;;;;;;;;5109432;28;20048;-62
2023/12/06 08:04:24;;;;;;;29.90;18.23;;;;;;;;;;5105540;28;20035;-62
2023/12/06 08:06:50;;;;;;;30.20;18.02;;;;;;;;;;5105057;28;20063;-63
2023/12/06 08:09:17;;;;;;;29.88;17.73;;;;;;;;;;5088539;28;20428;-63
2023/12/06 08:11:43;;;;;;;28.83;17.90;;;;;;;;;;5073522;28;20487;-61
2023/12/06 08:14:09;;;;;;;29.67;18.38;;;;;;;;;;5110458;28;20036;-62
2023/12/06 08:16:35;;;;;;;32.78;18.23;;;;;;;;;;5094129;28;20041;-62
2023/12/06 08:19:01;;;;;;;31.13;18.65;;;;;;;;;;5108689;28;20076;-62
2023/12/06 08:21:27;;;;;;;33.03;17.98;;;;;;;;;;5105824;28;20093;-63
2023/12/06 08:23:53;;;;;;;30.33;17.63;;;;;;;;;;5101284;28;20408;-61
2023/12/06 08:26:20;;;;;;;34.30;19.20;;;;;;;;;;5090178;28;20484;-61
2023/12/06 08:28:46;;;;;;;29.70;18.60;;;;;;;;;;5103368;28;20036;-61
2023/12/06 08:31:12;;;;;;;34.38;18.52;;;;;;;;;;5093660;28;20069;-61
2023/12/06 08:33:38;;;;;;;36.58;18.73;;;;;;;;;;5093383;28;20168;-61
2023/12/06 08:36:04;;;;;;;35.45;17.27;;;;;;;;;;5072378;28;20184;-62
2023/12/06 08:38:30;;;;;;;31.05;18.58;;;;;;;;;;5092268;28;20105;-61
2023/12/06 08:40:56;;;;;;;31.20;19.40;;;;;;;;;;5107151;28;20050;-61
2023/12/06 08:43:23;;;;;;;31.80;19.08;;;;;;;;;;5103414;28;20115;-61
2023/12/06 08:45:49;;;;;;;30.75;19.35;;;;;;;;;;5075964;28;20479;-62
2023/12/06 08:48:15;;;;;;;29.75;19.08;;;;;;;;;;5093818;28;20044;-61
2023/12/06 08:50:41;;;;;;;32.50;19.67;;;;;;;;;;5099757;28;20160;-62
2023/12/06 08:53:08;;;;;;;30.88;19.50;;;;;;;;;;5106477;28;20032;-62
2023/12/06 08:55:35;;;;;;;34.53;19.42;;;;;;;;;;5074014;28;20070;-63
2023/12/06 08:58:01;;;;;;;31.08;17.85;;;;;;;;;;5091959;28;20055;-62
2023/12/06 09:00:27;;;;;;;36.05;20.65;;;;;;;;;;5090557;28;20411;-62
2023/12/06 09:02:53;;;;;;;31.55;19.35;;;;;;;;;;5090628;28;20067;-62
2023/12/06 09:05:19;;;;;;;31.75;16.73;;;;;;;;;;5075722;28;20098;-62
2023/12/06 09:07:45;;;;;;;33.28;18.42;;;;;;;;;;5102883;28;20043;-62
2023/12/06 09:10:11;;;;;;;33.25;20.40;;;;;;;;;;5100979;28;20067;-62
2023/12/06 09:12:37;;;;;;;31.88;19.42;;;;;;;;;;5102944;28;20076;-61
2023/12/06 09:15:04;;;;;;;33.13;20.42;;;;;;;;;;5084714;28;20039;-63
2023/12/06 09:17:30;;;;;;;37.65;22.33;;;;;;;;;;5100653;27;20056;-61
2023/12/06 09:19:56;;;;;;;37.40;23.73;;;;;;;;;;5100117;28;20503;-61
2023/12/06 09:22:22;;;;;;;39.70;22.40;;;;;;;;;;5107055;28;20043;-62
2023/12/06 09:24:48;;;;;;;34.78;20.60;;;;;;;;;;5110644;28;20054;-62
2023/12/06 09:27:18;;;;;;;37.78;19.65;;;;;;;;;;5106872;28;20407;-61
2023/12/06 09:29:47;;;;;;;32.67;19.73;;;;;;;;;;5076784;28;20043;-61
2023/12/06 09:32:13;;;;;;;26.65;17.63;;;;;;;;;;5092214;28;20055;-61
2023/12/06 09:34:40;;;;;;;31.15;17.67;;;;;;;;;;5091218;28;20122;-62
2023/12/06 09:37:07;;;;;;;30.45;18.15;;;;;;;;;;5089041;28;20046;-63
2023/12/06 09:39:33;;;;;;;32.88;19.25;;;;;;;;;;5091573;28;20048;-61
2023/12/06 09:41:59;;;;;;;28.58;18.33;;;;;;;;;;5094179;28;20071;-61
2023/12/06 09:44:25;;;;;;;33.88;16.98;;;;;;;;;;5116301;28;20492;-62
2023/12/06 09:46:54;;;;;;;30.60;18.20;;;;;;;;;;5109047;28;20449;-61
2023/12/06 09:49:20;;;;;;;31.15;17.98;;;;;;;;;;5088882;28;20415;-61
2023/12/06 09:51:47;;;;;;;27.08;17.70;;;;;;;;;;5115141;28;20442;-60
2023/12/06 09:54:13;;;;;;;28.45;16.48;;;;;;;;;;5094085;28;20444;-61
2023/12/06 09:56:39;;;;;;;27.58;16.83;;;;;;;;;;5112091;28;20403;-61
2023/12/06 09:59:05;;;;;;;31.15;16.08;;;;;;;;;;5077650;28;20047;-60
2023/12/06 10:01:31;;;;;;;27.75;16.50;;;;;;;;;;5115641;28;20036;-61
2023/12/06 10:03:57;;;;;;;30.38;16.15;;;;;;;;;;5080680;28;20043;-61
2023/12/06 10:06:23;;;;;;;27.38;15.27;;;;;;;;;;5116081;28;20093;-60
2023/12/06 10:08:54;;;;;;;26.27;15.93;;;;;;;;;;5090040;28;20127;-60
2023/12/06 10:11:23;;;;;;;27.60;16.20;;;;;;;;;;5076839;28;20089;-60
2023/12/06 10:13:49;;;;;;;25.48;16.65;;;;;;;;;;5094811;28;20048;-61
2023/12/06 10:16:16;;;;;;;26.45;16.45;;;;;;;;;;5094576;28;20074;-60
2023/12/06 10:18:46;;;;;;;22.83;16.02;;;;;;;;;;5077784;28;20051;-60
2023/12/06 10:21:12;;;;;;;31.05;16.42;;;;;;;;;;5075031;28;20495;-60
2023/12/06 10:23:38;;;;;;;28.98;16.70;;;;;;;;;;5114297;28;20040;-61
2023/12/06 10:26:14;;;;;;;29.27;17.05;;;;;;;;;;5095246;28;20044;-60
2023/12/06 10:28:40;;;;;;;28.30;16.98;;;;;;;;;;5077161;28;20036;-60
2023/12/06 10:31:06;;;;;;;32.05;18.25;;;;;;;;;;5113447;28;20044;-60
2023/12/06 10:33:33;;;;;;;34.95;19.45;;;;;;;;;;5089707;28;20083;-60
2023/12/06 10:36:04;;;;;;;32.25;16.70;;;;;;;;;;5092613;28;20188;-60
2023/12/06 10:38:30;;;;;;;32.58;16.83;;;;;;;;;;5078444;28;20047;-61
2023/12/06 10:40:58;;;;;;;37.72;19.45;;;;;;;;;;5111623;28;20048;-60
2023/12/06 10:43:24;;;;;;;42.03;20.70;;;;;;;;;;5076225;28;20418;-60
2023/12/06 10:45:51;;;;;;;20.63;13.88;;;;;;;;;;5076504;28;20040;-60
2023/12/06 10:48:18;;;;;;;19.10;14.35;;;;;;;;;;5095270;28;20527;-60
2023/12/06 10:50:45;;;;;;;20.83;12.20;;;;;;;;;;5076755;28;20048;-60
2023/12/06 10:53:19;;;;;;;19.50;12.40;;;;;;;;;;5111947;28;20051;-60
2023/12/06 10:55:46;;;;;;;18.15;11.68;;;;;;;;;;5091656;28;20051;-61
2023/12/06 10:58:14;;;;;;;19.02;11.27;;;;;;;;;;5092094;28;20131;-60
2023/12/06 11:00:41;;;;;;;19.63;11.60;;;;;;;;;;5108169;28;20112;-59
2023/12/06 11:03:08;;;;;;;19.42;11.32;;;;;;;;;;5090383;28;20063;-61
2023/12/06 11:05:38;;;;;;;18.73;11.40;;;;;;;;;;5092689;28;20559;-60
2023/12/06 11:08:04;;;;;;;15.27;10.23;;;;;;;;;;5114101;28;20503;-60
2023/12/06 11:10:30;;;;;;;16.38;10.57;;;;;;;;;;5078799;28;20052;-60
2023/12/06 11:12:57;;;;;;;15.48;10.18;;;;;;;;;;5094865;28;20089;-59
2023/12/06 11:15:26;;;;;;;13.38;9.35;;;;;;;;;;5076855;28;20178;-60
2023/12/06 11:18:09;;;;;;;15.70;9.82;;;;;;;;;;5090388;28;20050;-60
2023/12/06 11:20:37;;;;;;;16.58;11.80;;;;;;;;;;5088302;28;20063;-60
2023/12/06 11:23:03;;;;;;;23.50;11.48;;;;;;;;;;5095088;28;20075;-60
2023/12/06 11:25:29;;;;;;;19.20;11.40;;;;;;;;;;5091876;28;20097;-60
2023/12/06 11:27:55;;;;;;;16.60;10.07;;;;;;;;;;5113457;28;20047;-60
2023/12/06 11:30:22;;;;;;;19.08;10.82;;;;;;;;;;5110556;28;20092;-60
2023/12/06 11:32:54;;;;;;;17.33;10.38;;;;;;;;;;5074437;28;20039;-61
2023/12/06 11:35:20;;;;;;;14.52;10.48;;;;;;;;;;5091795;28;20035;-60
2023/12/06 11:37:54;;;;;;;16.05;10.65;;;;;;;;;;5076961;28;20047;-60
2023/12/06 11:40:25;;;;;;;16.98;10.88;;;;;;;;;;5089981;28;20044;-60
2023/12/06 11:43:01;;;;;;;17.67;10.63;;;;;;;;;;5113904;28;20048;-62
2023/12/06 11:45:31;;;;;;;20.48;11.80;;;;;;;;;;5076981;28;20040;-61
2023/12/06 11:48:05;;;;;;;19.05;12.38;;;;;;;;;;5091356;28;20059;-60
2023/12/06 11:50:41;;;;;;;21.50;13.13;;;;;;;;;;5092802;28;20051;-63
2023/12/06 11:53:08;;;;;;;22.23;14.07;;;;;;;;;;5091660;28;20048;-60
2023/12/06 11:55:35;;;;;;;25.77;14.48;;;;;;;;;;5092395;28;20126;-60
2023/12/06 11:58:03;;;;;;;29.52;15.52;;;;;;;;;;5077250;28;20526;-60
2023/12/06 12:00:32;;;;;;;41.63;18.08;;;;;;;;;;5077278;28;20048;-60
2023/12/06 12:03:09;;;;;;;39.43;18.40;;;;;;;;;;5091043;28;20043;-60
2023/12/06 12:05:38;;;;;;;57.88;23.00;;;;;;;;;;5091968;28;20476;-61
2023/12/06 12:08:06;;;;;;;32.85;16.13;;;;;;;;;;5093340;28;20085;-60
2023/12/06 12:10:32;;;;;;;18.55;11.32;;;;;;;;;;5077563;28;20040;-60
2023/12/06 12:12:59;;;;;;;18.85;12.15;;;;;;;;;;5076741;28;20046;-60
2023/12/06 12:15:25;;;;;;;18.35;11.82;;;;;;;;;;5091762;28;20506;-60
2023/12/06 12:17:52;;;;;;;19.60;12.68;;;;;;;;;;5108885;28;20134;-60
2023/12/06 12:20:21;;;;;;;21.35;13.68;;;;;;;;;;5092362;28;20048;-60
2023/12/06 12:22:48;;;;;;;19.20;11.50;;;;;;;;;;5092614;28;20052;-61
2023/12/06 12:25:15;;;;;;;16.40;10.75;;;;;;;;;;5091941;28;20120;-61
2023/12/06 12:27:41;;;;;;;17.52;11.43;;;;;;;;;;5094018;28;20488;-60
2023/12/06 12:30:12;;;;;;;16.98;10.95;;;;;;;;;;5076151;28;20050;-60
2023/12/06 12:32:49;;;;;;;17.77;10.32;;;;;;;;;;5072598;28;20184;-60
2023/12/06 12:35:18;;;;;;;18.80;10.40;;;;;;;;;;5075646;28;20052;-60
2023/12/06 12:37:44;;;;;;;14.70;9.65;;;;;;;;;;5092134;28;20043;-61
2023/12/06 12:40:11;;;;;;;17.40;10.63;;;;;;;;;;5076159;28;20574;-60
2023/12/06 12:42:40;;;;;;;19.52;10.60;;;;;;;;;;5071020;28;20476;-60
2023/12/06 12:45:07;;;;;;;18.90;11.05;;;;;;;;;;5093246;28;20056;-61
2023/12/06 12:47:33;;;;;;;14.57;10.30;;;;;;;;;;5073848;28;20086;-60
2023/12/06 12:49:59;;;;;;;16.70;10.88;;;;;;;;;;5091607;28;20369;-62
2023/12/06 12:52:30;;;;;;;17.83;9.77;;;;;;;;;;5073434;28;20043;-59
2023/12/06 12:54:57;;;;;;;13.93;9.85;;;;;;;;;;5109603;28;20043;-59
2023/12/06 12:57:25;;;;;;;14.52;9.80;;;;;;;;;;5076224;28;20131;-59
2023/12/06 12:59:53;;;;;;;15.35;9.65;;;;;;;;;;5092301;28;20506;-59
2023/12/06 13:02:19;;;;;;;14.00;9.07;;;;;;;;;;5111846;28;20399;-60
2023/12/06 13:04:46;;;;;;;14.75;8.07;;;;;;;;;;5076652;28;20055;-59
2023/12/06 13:07:15;;;;;;;15.35;9.32;;;;;;;;;;5074294;28;20128;-59
2023/12/06 13:09:42;;;;;;;16.98;9.07;;;;;;;;;;5071505;28;20044;-59
2023/12/06 13:12:08;;;;;;;12.48;7.97;;;;;;;;;;5110098;28;20097;-60
2023/12/06 13:14:34;;;;;;;16.92;9.40;;;;;;;;;;5109232;28;20032;-59
2023/12/06 13:17:01;;;;;;;17.58;7.97;;;;;;;;;;5073451;28;20123;-60
2023/12/06 13:19:27;;;;;;;15.27;9.02;;;;;;;;;;5093087;28;20050;-59
2023/12/06 13:21:54;;;;;;;13.88;8.52;;;;;;;;;;5092210;28;20130;-60
2023/12/06 13:24:20;;;;;;;13.50;8.68;;;;;;;;;;5093574;28;20078;-60
2023/12/06 13:26:46;;;;;;;15.10;8.88;;;;;;;;;;5073406;28;20407;-59
2023/12/06 13:29:12;;;;;;;19.58;10.57;;;;;;;;;;5111482;28;20043;-59
2023/12/06 13:31:38;;;;;;;14.60;9.10;;;;;;;;;;5091400;28;20434;-60
2023/12/06 13:34:06;;;;;;;16.85;9.85;;;;;;;;;;5090960;28;20476;-59
2023/12/06 13:36:32;;;;;;;11.93;7.35;;;;;;;;;;5091606;28;20059;-59
2023/12/06 13:38:58;;;;;;;12.57;8.10;;;;;;;;;;5110784;28;20036;-59
2023/12/06 13:41:26;;;;;;;15.45;7.95;;;;;;;;;;5090360;28;20043;-59
2023/12/06 13:43:54;;;;;;;12.80;8.70;;;;;;;;;;5091057;28;20046;-59
2023/12/06 13:46:20;;;;;;;12.88;8.18;;;;;;;;;;5090231;28;20089;-60
2023/12/06 13:48:46;;;;;;;13.77;7.80;;;;;;;;;;5074877;28;20434;-60
2023/12/06 13:51:12;;;;;;;14.10;8.65;;;;;;;;;;5075225;28;20044;-59
2023/12/06 13:53:38;;;;;;;11.55;5.43;;;;;;;;;;5092168;28;20387;-59
2023/12/06 13:56:04;;;;;;;11.90;7.35;;;;;;;;;;5073895;28;20047;-60
2023/12/06 13:58:30;;;;;;;11.07;6.95;;;;;;;;;;5090237;28;20055;-59
2023/12/06 14:00:56;;;;;;;13.00;7.88;;;;;;;;;;5091087;28;20079;-59
2023/12/06 14:03:27;;;;;;;11.88;8.50;;;;;;;;;;5109866;28;20032;-59
2023/12/06 14:05:55;;;;;;;12.38;7.53;;;;;;;;;;5091087;28;20120;-60
2023/12/06 14:08:24;;;;;;;11.10;7.85;;;;;;;;;;5091602;28;20405;-59
2023/12/06 14:10:50;;;;;;;12.10;7.68;;;;;;;;;;5109861;28;20093;-59
2023/12/06 14:13:16;;;;;;;12.68;7.50;;;;;;;;;;5090958;28;20054;-59
2023/12/06 14:15:42;;;;;;;11.85;7.20;;;;;;;;;;5090395;28;20044;-59